Time;durP1;ratioP1;P1;durP2;ratioP2;P2;SDS_P1;SDS_P2;PMS_P1;PMS_P2;Temp;Humidity;BMP_temperature;BMP_pressure;BME280_temperature;BME280_humidity;BME280_pressure;Samples;Min_cycle;Max_cycle;Signal;HPM_P1;HPM_P2
2021/11/29 00:00:16;;;;;;;;;;;;;;;19.28;45.78;98839.31;2086834;28;19967;-66
2021/11/29 00:01:18;;;;;;;;;;;;;;;19.28;45.94;98844.75;2088601;28;19923;-67
2021/11/29 00:02:21;;;;;;;;;;;;;;;19.28;46.05;98849.38;2078734;28;20371;-66
2021/11/29 00:03:22;;;;;;;;;;;;;;;19.26;46.01;98841.34;2076853;28;19920;-66
2021/11/29 00:04:34;;;;;;;;;;;;;;;19.26;45.99;98846.81;2087020;28;19955;-66
2021/11/29 00:05:35;;;;;;;;;;;;;;;19.26;46.01;98848.72;2086245;28;20332;-66
2021/11/29 00:06:35;;;;;;;;;;;;;;;19.26;46.05;98849.56;2087476;28;19908;-66
2021/11/29 00:07:36;;;;;;;;;;;;;;;19.26;45.95;98849.56;2087369;28;19908;-66
2021/11/29 00:08:36;;;;;;;;;;;;;;;19.26;45.97;98852.28;2086080;28;19923;-66
2021/11/29 00:09:37;;;;;;;;;;;;;;;19.27;45.99;98853.97;2087093;28;20461;-66
2021/11/29 00:10:38;;;;;;;;;;;;;;;19.28;46.01;98855.69;2087069;28;19912;-66
2021/11/29 00:11:38;;;;;;;;;;;;;;;19.30;45.91;98851.91;2087817;28;19923;-66
2021/11/29 00:12:39;;;;;;;;;;;;;;;19.31;45.88;98859.09;2088593;28;19966;-66
2021/11/29 00:13:39;;;;;;;;;;;;;;;19.31;45.95;98848.16;2087227;28;19912;-66
2021/11/29 00:14:40;;;;;;;;;;;;;;;19.31;45.82;98851.75;2087275;28;20041;-65
2021/11/29 00:15:40;;;;;;;;;;;;;;;19.31;45.89;98850.91;2086632;28;19916;-66
2021/11/29 00:16:40;;;;;;;;;;;;;;;19.32;45.91;98849.84;2083681;28;20712;-66
2021/11/29 00:17:41;;;;;;;;;;;;;;;19.32;45.90;98856.16;2086979;28;19909;-66
2021/11/29 00:18:41;;;;;;;;;;;;;;;19.32;45.91;98860.78;2084962;28;20259;-66
2021/11/29 00:19:41;;;;;;;;;;;;;;;19.31;45.89;98859.94;2087491;28;19917;-65
2021/11/29 00:20:45;;;;;;;;;;;;;;;19.32;45.92;98861.63;2087369;28;19956;-66
2021/11/29 00:21:45;;;;;;;;;;;;;;;19.33;45.89;98859.75;2085468;28;19923;-66
2021/11/29 00:22:46;;;;;;;;;;;;;;;19.33;45.93;98854.28;2088247;28;20382;-66
2021/11/29 00:23:46;;;;;;;;;;;;;;;19.32;45.96;98866.25;2087658;28;19919;-66
2021/11/29 00:24:46;;;;;;;;;;;;;;;19.31;45.93;98856.38;2091212;28;19916;-66
2021/11/29 00:25:47;;;;;;;;;;;;;;;19.31;45.93;98859.94;2097300;28;19916;-66
2021/11/29 00:26:47;;;;;;;;;;;;;;;19.31;45.86;98856.38;2087845;28;19922;-66
2021/11/29 00:27:47;;;;;;;;;;;;;;;19.30;45.94;98852.75;2087928;28;20009;-66
2021/11/29 00:28:48;;;;;;;;;;;;;;;19.30;45.97;98852.75;2088970;28;19912;-65
2021/11/29 00:29:48;;;;;;;;;;;;;;;19.30;45.94;98847.28;2087651;28;19917;-66
2021/11/29 00:30:49;;;;;;;;;;;;;;;19.28;45.82;98855.69;2088484;28;20441;-68
2021/11/29 00:31:49;;;;;;;;;;;;;;;19.30;45.99;98851.91;2089873;28;19916;-66
2021/11/29 00:32:49;;;;;;;;;;;;;;;19.26;46.04;98841.34;2090630;28;20303;-66
2021/11/29 00:33:50;;;;;;;;;;;;;;;19.27;46.03;98848.50;2089390;28;19959;-65
2021/11/29 00:34:50;;;;;;;;;;;;;;;19.27;46.02;98847.66;2088622;28;19960;-66
2021/11/29 00:35:51;;;;;;;;;;;;;;;19.28;45.99;98849.38;2090606;28;19966;-66
2021/11/29 00:36:51;;;;;;;;;;;;;;;19.25;45.98;98845.09;2088751;28;19916;-66
2021/11/29 00:37:52;;;;;;;;;;;;;;;19.26;46.05;98846.81;2089696;28;19952;-66
2021/11/29 00:38:52;;;;;;;;;;;;;;;19.27;46.13;98848.50;2089495;28;19935;-66
2021/11/29 00:39:52;;;;;;;;;;;;;;;19.26;46.04;98849.56;2087834;28;19920;-66
2021/11/29 00:40:53;;;;;;;;;;;;;;;19.25;46.11;98839.63;2089167;28;19954;-66
2021/11/29 00:41:53;;;;;;;;;;;;;;;19.25;46.11;98845.09;2088426;28;19916;-66
2021/11/29 00:42:53;;;;;;;;;;;;;;;19.24;46.14;98843.41;2089063;28;19970;-66
2021/11/29 00:43:53;;;;;;;;;;;;;;;19.25;46.12;98839.63;2088966;28;19916;-66
2021/11/29 00:44:54;;;;;;;;;;;;;;;19.24;45.95;98848.88;2088120;28;19976;-66
2021/11/29 00:45:54;;;;;;;;;;;;;;;19.24;46.06;98853.50;2089148;28;19932;-66
2021/11/29 00:46:54;;;;;;;;;;;;;;;19.24;46.07;98857.06;2088886;28;19916;-66
2021/11/29 00:47:55;;;;;;;;;;;;;;;19.24;46.13;98854.34;2089535;28;19916;-66
2021/11/29 00:48:55;;;;;;;;;;;;;;;19.23;45.98;98860.84;2077925;28;19921;-66
2021/11/29 00:49:55;;;;;;;;;;;;;;;19.23;46.21;98855.38;2079991;28;19917;-66
2021/11/29 00:50:56;;;;;;;;;;;;;;;19.24;46.06;98858.97;2088265;28;19920;-66
2021/11/29 00:51:56;;;;;;;;;;;;;;;19.24;46.10;98848.03;2084839;28;19928;-66
2021/11/29 00:52:56;;;;;;;;;;;;;;;19.23;46.18;98858.13;2086749;28;19916;-66
2021/11/29 00:53:57;;;;;;;;;;;;;;;19.22;46.11;98856.41;2088816;28;19913;-66
2021/11/29 00:54:57;;;;;;;;;;;;;;;19.22;46.14;98859.13;2088797;28;19955;-66
2021/11/29 00:55:57;;;;;;;;;;;;;;;19.23;46.17;98862.72;2089498;28;20206;-65
2021/11/29 00:56:58;;;;;;;;;;;;;;;19.22;46.15;98863.75;2083932;28;19923;-66
2021/11/29 00:57:58;;;;;;;;;;;;;;;19.22;46.01;98866.47;2081821;28;19951;-66
2021/11/29 00:58:58;;;;;;;;;;;;;;;19.21;46.17;98862.91;2089681;28;19920;-66
2021/11/29 00:59:59;;;;;;;;;;;;;;;19.21;46.14;98864.78;2088613;28;20704;-66
2021/11/29 01:00:59;;;;;;;;;;;;;;;19.20;46.24;98869.38;2089621;28;19912;-65
2021/11/29 01:01:59;;;;;;;;;;;;;;;19.19;46.16;98870.44;2088555;28;20408;-66
2021/11/29 01:03:00;;;;;;;;;;;;;;;19.20;46.27;98869.38;2088757;28;19912;-66
2021/11/29 01:04:00;;;;;;;;;;;;;;;19.20;46.12;98880.31;2089750;28;20387;-65
2021/11/29 01:05:00;;;;;;;;;;;;;;;19.19;46.29;98873.16;2088412;28;20589;-66
2021/11/29 01:06:01;;;;;;;;;;;;;;;19.19;46.15;98872.31;2089325;28;19911;-65
2021/11/29 01:07:01;;;;;;;;;;;;;;;19.19;46.15;98878.63;2089016;28;19950;-65
2021/11/29 01:08:01;;;;;;;;;;;;;;;19.19;46.25;98877.78;2088015;28;19923;-66
2021/11/29 01:09:02;;;;;;;;;;;;;;;19.19;46.26;98883.25;2089412;28;20863;-66
2021/11/29 01:10:03;;;;;;;;;;;;;;;19.19;46.26;98875.06;2088675;28;19995;-66
2021/11/29 01:11:10;;;;;;;;;;;;;;;19.18;46.26;98876.06;2089598;28;19962;-66
2021/11/29 01:12:10;;;;;;;;;;;;;;;19.18;46.28;98876.94;2087328;28;19917;-66
2021/11/29 01:13:10;;;;;;;;;;;;;;;19.18;46.19;98876.94;2089437;28;19920;-66
2021/11/29 01:14:11;;;;;;;;;;;;;;;19.17;46.25;98880.69;2088718;28;19916;-66
2021/11/29 01:15:13;;;;;;;;;;;;;;;19.17;46.21;98880.69;2089336;28;20365;-66
2021/11/29 01:16:13;;;;;;;;;;;;;;;19.15;46.13;98882.72;2089207;28;20074;-66
2021/11/29 01:17:14;;;;;;;;;;;;;;;19.17;46.19;98885.28;2089763;28;20432;-66
2021/11/29 01:18:14;;;;;;;;;;;;;;;19.15;46.34;98885.47;2089035;28;19955;-66
2021/11/29 01:19:15;;;;;;;;;;;;;;;19.15;46.25;98882.72;2089261;28;20315;-65
2021/11/29 01:20:15;;;;;;;;;;;;;;;19.15;46.33;98890.94;2089640;28;20731;-66
2021/11/29 01:21:17;;;;;;;;;;;;;;;19.15;46.36;98887.34;2088380;28;19923;-66
2021/11/29 01:22:18;;;;;;;;;;;;;;;19.16;46.25;98887.19;2080075;28;19947;-66
2021/11/29 01:23:20;;;;;;;;;;;;;;;19.14;46.35;98891.97;2079793;28;19939;-66
2021/11/29 01:24:20;;;;;;;;;;;;;;;19.14;46.33;98886.50;2089130;28;19921;-66
2021/11/29 01:25:20;;;;;;;;;;;;;;;19.15;46.32;98893.66;2096772;28;19918;-66
2021/11/29 01:26:21;;;;;;;;;;;;;;;19.13;46.36;98895.72;2090596;28;19920;-65
2021/11/29 01:27:21;;;;;;;;;;;;;;;19.14;46.34;98894.69;2089544;28;19912;-65
2021/11/29 01:28:22;;;;;;;;;;;;;;;19.14;46.28;98902.91;2087749;28;19939;-66
2021/11/29 01:29:22;;;;;;;;;;;;;;;19.13;46.31;98901.19;2087084;28;19958;-66
2021/11/29 01:30:23;;;;;;;;;;;;;;;19.14;46.22;98902.06;2086485;28;19963;-66
2021/11/29 01:31:23;;;;;;;;;;;;;;;19.14;46.30;98911.09;2089844;28;20652;-66
2021/11/29 01:32:23;;;;;;;;;;;;;;;19.13;46.42;98901.19;2080589;28;19963;-66
2021/11/29 01:33:24;;;;;;;;;;;;;;;19.14;46.34;98912.97;2079589;28;19916;-66
2021/11/29 01:34:24;;;;;;;;;;;;;;;19.12;46.39;98904.94;2089054;28;19947;-66
2021/11/29 01:35:25;;;;;;;;;;;;;;;19.12;46.47;98913.16;2088954;28;19908;-66
2021/11/29 01:36:26;;;;;;;;;;;;;;;19.12;46.43;98915.88;2089546;28;19919;-66
2021/11/29 01:37:26;;;;;;;;;;;;;;;19.12;46.46;98906.84;2089052;28;19912;-65
2021/11/29 01:38:26;;;;;;;;;;;;;;;19.11;46.50;98902.38;2088091;28;19994;-66
2021/11/29 01:39:27;;;;;;;;;;;;;;;19.11;46.48;98903.25;2090735;28;19913;-65
2021/11/29 01:40:29;;;;;;;;;;;;;;;19.12;46.45;98915.03;2088413;28;19915;-65
2021/11/29 01:41:29;;;;;;;;;;;;;;;19.11;46.50;98914.19;2089843;28;19934;-66
2021/11/29 01:42:29;;;;;;;;;;;;;;;19.10;46.49;98906.16;2089415;28;19935;-65
2021/11/29 01:43:30;;;;;;;;;;;;;;;19.10;46.51;98912.47;2089416;28;19920;-66
2021/11/29 01:44:30;;;;;;;;;;;;;;;19.09;46.56;98913.50;2090173;28;19916;-65
2021/11/29 01:45:32;;;;;;;;;;;;;;;19.09;46.51;98910.78;2089291;28;19920;-66
2021/11/29 01:46:33;;;;;;;;;;;;;;;19.08;46.42;98911.78;2089408;28;20639;-66
2021/11/29 01:47:33;;;;;;;;;;;;;;;19.09;46.56;98915.41;2088740;28;19912;-65
2021/11/29 01:48:33;;;;;;;;;;;;;;;19.09;46.43;98916.25;2088840;28;19962;-66
2021/11/29 01:49:34;;;;;;;;;;;;;;;19.07;46.50;98907.38;2089817;28;19916;-66
2021/11/29 01:50:42;;;;;;;;;;;;;;;19.08;46.57;98911.78;2077833;28;19913;-65
2021/11/29 01:51:42;;;;;;;;;;;;;;;19.09;46.50;98915.41;2080980;28;20427;-66
2021/11/29 01:52:42;;;;;;;;;;;;;;;19.07;46.48;98912.84;2089962;28;20298;-66
2021/11/29 01:53:43;;;;;;;;;;;;;;;19.07;46.59;98912.84;2088713;28;19917;-65
2021/11/29 01:54:43;;;;;;;;;;;;;;;19.05;46.50;98909.44;2088354;28;19939;-65
2021/11/29 01:55:45;;;;;;;;;;;;;;;19.07;46.50;98918.28;2095084;28;19916;-66
2021/11/29 01:56:46;;;;;;;;;;;;;;;19.08;46.49;98914.53;2090978;28;19920;-65
2021/11/29 01:57:46;;;;;;;;;;;;;;;19.08;46.58;98913.69;2089525;28;19912;-65
2021/11/29 01:58:47;;;;;;;;;;;;;;;19.06;46.51;98916.63;2089816;28;19916;-66
2021/11/29 01:59:49;;;;;;;;;;;;;;;19.05;46.50;98914.88;2095714;28;19960;-65
2021/11/29 02:00:51;;;;;;;;;;;;;;;19.05;46.56;98915.72;2088925;28;19917;-65
2021/11/29 02:01:52;;;;;;;;;;;;;;;19.04;46.44;98913.19;2086692;28;20378;-65
2021/11/29 02:02:53;;;;;;;;;;;;;;;19.04;46.52;98913.19;2089648;28;19912;-66
2021/11/29 02:03:57;;;;;;;;;;;;;;;19.05;46.56;98920.34;2088606;28;19924;-65
2021/11/29 02:04:59;;;;;;;;;;;;;;;19.05;46.62;98917.63;2089922;28;19923;-65
2021/11/29 02:05:59;;;;;;;;;;;;;;;19.04;46.60;98913.19;2089787;28;20227;-65
2021/11/29 02:07:00;;;;;;;;;;;;;;;19.04;46.52;98924.13;2087903;28;19909;-65
2021/11/29 02:08:00;;;;;;;;;;;;;;;19.03;46.53;98923.28;2089662;28;19962;-65
2021/11/29 02:09:01;;;;;;;;;;;;;;;19.03;46.48;98922.41;2088392;28;19951;-65
2021/11/29 02:10:03;;;;;;;;;;;;;;;19.03;46.66;98922.41;2079922;28;19912;-65
2021/11/29 02:11:04;;;;;;;;;;;;;;;19.03;46.66;98923.28;2080595;28;20300;-65
2021/11/29 02:12:05;;;;;;;;;;;;;;;19.02;46.51;98916.09;2087224;28;20434;-65
2021/11/29 02:13:05;;;;;;;;;;;;;;;19.02;46.60;98920.72;2088088;28;20402;-65
2021/11/29 02:14:06;;;;;;;;;;;;;;;19.03;46.56;98922.41;2090336;28;19914;-65
2021/11/29 02:15:06;;;;;;;;;;;;;;;19.01;46.60;98930.78;2088454;28;20371;-65
2021/11/29 02:16:07;;;;;;;;;;;;;;;19.01;46.63;98925.34;2096535;28;19967;-65
2021/11/29 02:17:07;;;;;;;;;;;;;;;19.00;46.62;98922.78;2096011;28;20094;-66
2021/11/29 02:18:08;;;;;;;;;;;;;;;19.01;46.55;98929.91;2088310;28;19943;-66
2021/11/29 02:19:08;;;;;;;;;;;;;;;19.00;46.65;98933.69;2089339;28;20175;-66
2021/11/29 02:20:09;;;;;;;;;;;;;;;19.00;46.53;98928.22;2087815;28;20430;-66
2021/11/29 02:21:15;;;;;;;;;;;;;;;19.00;46.60;98936.41;2088786;28;19951;-65
2021/11/29 02:22:15;;;;;;;;;;;;;;;19.00;46.70;98937.25;2089140;28;19917;-65
2021/11/29 02:23:16;;;;;;;;;;;;;;;19.00;46.56;98940.00;2088095;28;19913;-65
2021/11/29 02:24:17;;;;;;;;;;;;;;;18.99;46.64;98942.94;2087859;28;19913;-65
2021/11/29 02:25:19;;;;;;;;;;;;;;;19.00;46.61;98941.88;2090400;28;19944;-65
2021/11/29 02:26:22;;;;;;;;;;;;;;;18.99;46.69;98948.38;2088955;28;20453;-65
2021/11/29 02:27:22;;;;;;;;;;;;;;;18.99;46.71;98948.38;2088632;28;19935;-65
2021/11/29 02:28:23;;;;;;;;;;;;;;;18.99;46.71;98949.22;2080005;28;20407;-66
2021/11/29 02:29:23;;;;;;;;;;;;;;;18.99;46.62;98948.38;2079739;28;20280;-65
2021/11/29 02:30:25;;;;;;;;;;;;;;;18.99;46.71;98956.59;2089085;28;19920;-65
2021/11/29 02:31:34;;;;;;;;;;;;;;;18.98;46.67;98952.13;2088457;28;19917;-65
2021/11/29 02:32:34;;;;;;;;;;;;;;;18.98;46.75;98952.13;2088869;28;20045;-65
2021/11/29 02:33:35;;;;;;;;;;;;;;;18.97;46.58;98956.75;2087006;28;19917;-67
2021/11/29 02:34:35;;;;;;;;;;;;;;;18.98;46.71;98958.44;2088213;28;19952;-65
2021/11/29 02:35:36;;;;;;;;;;;;;;;18.98;46.67;98957.59;2088948;28;20409;-65
2021/11/29 02:36:36;;;;;;;;;;;;;;;18.97;46.60;98954.00;2088640;28;19923;-65
2021/11/29 02:37:37;;;;;;;;;;;;;;;18.97;46.64;98964.09;2088596;28;20137;-65
2021/11/29 02:38:37;;;;;;;;;;;;;;;18.97;46.71;98961.38;2088624;28;19915;-65
2021/11/29 02:39:38;;;;;;;;;;;;;;;18.98;46.63;98963.06;2079494;28;19920;-65
2021/11/29 02:40:38;;;;;;;;;;;;;;;18.98;46.63;98957.59;2079131;28;20338;-66
2021/11/29 02:41:39;;;;;;;;;;;;;;;18.97;46.65;98954.00;2088614;28;20637;-65
2021/11/29 02:42:40;;;;;;;;;;;;;;;18.98;46.64;98958.44;2088789;28;20391;-66
2021/11/29 02:43:42;;;;;;;;;;;;;;;18.99;46.70;98956.59;2087996;28;20265;-66
2021/11/29 02:44:42;;;;;;;;;;;;;;;18.99;46.57;98954.69;2086090;28;19923;-65
2021/11/29 02:45:42;;;;;;;;;;;;;;;19.03;46.44;98955.19;2081338;28;19913;-66
2021/11/29 02:46:43;;;;;;;;;;;;;;;19.04;46.45;98957.75;2090353;28;19912;-65
2021/11/29 02:47:43;;;;;;;;;;;;;;;19.05;46.43;98956.69;2088684;28;20322;-65
2021/11/29 02:48:45;;;;;;;;;;;;;;;19.06;46.49;98960.31;2090383;28;19955;-65
2021/11/29 02:49:45;;;;;;;;;;;;;;;19.07;46.48;98953.81;2088555;28;20062;-65
2021/11/29 02:50:46;;;;;;;;;;;;;;;19.08;46.30;98951.91;2089367;28;19962;-66
2021/11/29 02:51:47;;;;;;;;;;;;;;;19.08;46.35;98952.75;2089798;28;19924;-65
2021/11/29 02:52:47;;;;;;;;;;;;;;;19.10;46.44;98956.16;2090178;28;19916;-65
2021/11/29 02:53:49;;;;;;;;;;;;;;;19.10;46.30;98950.72;2090377;28;19920;-65
2021/11/29 02:54:50;;;;;;;;;;;;;;;19.11;46.21;98957.91;2081575;28;19909;-65
2021/11/29 02:55:50;;;;;;;;;;;;;;;19.12;46.25;98964.19;2080235;28;19909;-65
2021/11/29 02:56:52;;;;;;;;;;;;;;;19.11;46.19;98960.63;2089457;28;20323;-65
2021/11/29 02:57:52;;;;;;;;;;;;;;;19.12;46.14;98965.03;2089199;28;19921;-65
2021/11/29 02:58:53;;;;;;;;;;;;;;;19.13;46.31;98960.44;2090942;28;19917;-65
2021/11/29 02:59:53;;;;;;;;;;;;;;;19.12;46.23;98965.03;2089473;28;19971;-66
2021/11/29 03:00:53;;;;;;;;;;;;;;;19.12;46.07;98970.50;2089599;28;19935;-65
2021/11/29 03:01:55;;;;;;;;;;;;;;;19.14;46.13;98973.06;2089915;28;19975;-66
2021/11/29 03:03:06;;;;;;;;;;;;;;;19.14;46.17;98970.34;2089196;28;20383;-65
2021/11/29 03:04:06;;;;;;;;;;;;;;;19.12;46.08;98975.97;2090241;28;20050;-65
2021/11/29 03:05:08;;;;;;;;;;;;;;;19.13;46.14;98977.66;2089803;28;19942;-65
2021/11/29 03:06:08;;;;;;;;;;;;;;;19.14;46.14;98979.38;2089973;28;19912;-65
2021/11/29 03:07:09;;;;;;;;;;;;;;;19.14;46.01;98981.28;2089722;28;19916;-65
2021/11/29 03:08:09;;;;;;;;;;;;;;;19.15;46.01;98985.69;2088120;28;20030;-65
2021/11/29 03:09:09;;;;;;;;;;;;;;;19.13;46.02;98985.84;2090020;28;19909;-65
2021/11/29 03:10:10;;;;;;;;;;;;;;;19.14;46.05;98995.78;2089620;28;19955;-65
2021/11/29 03:11:10;;;;;;;;;;;;;;;19.14;46.11;98995.78;2092967;28;19912;-60
2021/11/29 03:12:10;;;;;;;;;;;;;;;19.15;46.10;98999.34;2100195;28;19962;-61
2021/11/29 03:13:11;;;;;;;;;;;;;;;19.15;46.09;99002.94;2100129;28;19919;-60
2021/11/29 03:14:11;;;;;;;;;;;;;;;19.15;45.99;99002.94;2099773;28;19965;-60
2021/11/29 03:15:12;;;;;;;;;;;;;;;19.16;45.92;99003.81;2100076;28;19913;-60
2021/11/29 03:16:12;;;;;;;;;;;;;;;19.17;46.01;99005.50;2099973;28;20371;-61
2021/11/29 03:17:13;;;;;;;;;;;;;;;19.16;45.91;99004.66;2090921;28;19919;-60
2021/11/29 03:18:13;;;;;;;;;;;;;;;19.18;45.93;99007.19;2082715;28;19919;-60
2021/11/29 03:19:14;;;;;;;;;;;;;;;19.18;45.89;99013.53;2084751;28;19913;-60
2021/11/29 03:20:14;;;;;;;;;;;;;;;19.19;45.96;99015.22;2092394;28;20033;-61
2021/11/29 03:21:17;;;;;;;;;;;;;;;19.18;45.93;99012.66;2100164;28;20371;-60
2021/11/29 03:22:17;;;;;;;;;;;;;;;19.19;45.82;99020.69;2099652;28;19968;-60
2021/11/29 03:23:18;;;;;;;;;;;;;;;19.19;45.82;99020.69;2099768;28;19912;-60
2021/11/29 03:24:18;;;;;;;;;;;;;;;19.19;45.85;99019.84;2099844;28;19969;-60
2021/11/29 03:25:18;;;;;;;;;;;;;;;19.17;45.87;99021.88;2099920;28;19952;-60
2021/11/29 03:26:20;;;;;;;;;;;;;;;19.20;45.80;99021.53;2099935;28;19916;-60
2021/11/29 03:27:20;;;;;;;;;;;;;;;19.18;45.83;99029.91;2099842;28;19919;-61
2021/11/29 03:28:21;;;;;;;;;;;;;;;19.17;45.82;99022.72;2099798;28;20447;-60
2021/11/29 03:29:21;;;;;;;;;;;;;;;19.18;45.87;99020.84;2099953;28;20379;-61
2021/11/29 03:30:21;;;;;;;;;;;;;;;19.16;45.85;99026.50;2099884;28;19917;-60
2021/11/29 03:31:25;;;;;;;;;;;;;;;19.17;45.85;99028.19;2099923;28;19912;-60
2021/11/29 03:32:26;;;;;;;;;;;;;;;19.17;45.82;99025.47;2099789;28;19912;-61
2021/11/29 03:33:26;;;;;;;;;;;;;;;19.16;45.86;99031.97;2099753;28;19912;-61
2021/11/29 03:34:27;;;;;;;;;;;;;;;19.16;45.86;99026.50;2099809;28;20369;-61
2021/11/29 03:35:28;;;;;;;;;;;;;;;19.16;45.80;99031.97;2099842;28;20313;-60
2021/11/29 03:36:29;;;;;;;;;;;;;;;19.16;45.87;99031.97;2090452;28;19944;-61
2021/11/29 03:37:30;;;;;;;;;;;;;;;19.16;45.89;99042.91;2091052;28;19920;-60
2021/11/29 03:38:30;;;;;;;;;;;;;;;19.16;45.83;99051.09;2099945;28;19912;-61
2021/11/29 03:39:31;;;;;;;;;;;;;;;19.15;45.84;99049.38;2099851;28;20290;-61
2021/11/29 03:40:32;;;;;;;;;;;;;;;19.15;45.88;99051.25;2099800;28;20306;-60
2021/11/29 03:41:32;;;;;;;;;;;;;;;19.13;45.94;99045.94;2099677;28;20317;-60
2021/11/29 03:42:33;;;;;;;;;;;;;;;19.14;45.92;99058.59;2099716;28;19912;-60
2021/11/29 03:43:33;;;;;;;;;;;;;;;19.14;45.85;99061.34;2099815;28;19912;-60
2021/11/29 03:44:34;;;;;;;;;;;;;;;19.15;45.86;99067.66;2096696;28;19920;-60
2021/11/29 03:45:35;;;;;;;;;;;;;;;19.13;45.85;99062.34;2099193;28;19919;-60
2021/11/29 03:46:42;;;;;;;;;;;;;;;19.15;45.89;99071.22;2107398;28;19912;-61
2021/11/29 03:47:42;;;;;;;;;;;;;;;19.14;45.87;99077.72;2106510;28;19912;-61
2021/11/29 03:48:43;;;;;;;;;;;;;;;19.14;45.88;99069.53;2099813;28;19920;-61
2021/11/29 03:49:44;;;;;;;;;;;;;;;19.13;45.93;99070.53;2099350;28;19916;-61
2021/11/29 03:50:44;;;;;;;;;;;;;;;19.15;45.88;99079.41;2099602;28;20383;-60
2021/11/29 03:51:44;;;;;;;;;;;;;;;19.14;46.00;99072.25;2087732;28;19929;-65
2021/11/29 03:52:45;;;;;;;;;;;;;;;19.15;45.87;99075.84;2083090;28;20720;-65
2021/11/29 03:53:45;;;;;;;;;;;;;;;19.14;45.85;99077.72;2080458;28;19917;-66
2021/11/29 03:54:45;;;;;;;;;;;;;;;19.14;45.94;99083.19;2081052;28;19913;-65
2021/11/29 03:55:46;;;;;;;;;;;;;;;19.13;45.82;99076.00;2080871;28;19917;-65
2021/11/29 03:56:47;;;;;;;;;;;;;;;19.14;45.86;99085.91;2080765;28;19913;-65
2021/11/29 03:57:47;;;;;;;;;;;;;;;19.14;45.83;99085.06;2079486;28;20261;-65
2021/11/29 03:58:54;;;;;;;;;;;;;;;19.14;45.81;99087.81;2080555;28;19920;-65
2021/11/29 03:59:55;;;;;;;;;;;;;;;19.14;45.82;99088.66;2081344;28;19952;-65
2021/11/29 04:00:55;;;;;;;;;;;;;;;19.13;45.96;99092.41;2080815;28;20392;-65
2021/11/29 04:01:55;;;;;;;;;;;;;;;19.13;45.86;99100.59;2080096;28;20847;-65
2021/11/29 04:02:56;;;;;;;;;;;;;;;19.14;45.83;99101.47;2078923;28;20232;-65
2021/11/29 04:03:56;;;;;;;;;;;;;;;19.13;45.83;99103.31;2077500;28;20550;-65
2021/11/29 04:04:57;;;;;;;;;;;;;;;19.14;45.85;99110.50;2080895;28;20012;-65
2021/11/29 04:05:57;;;;;;;;;;;;;;;19.13;46.13;99107.94;2080754;28;19913;-65
2021/11/29 04:06:58;;;;;;;;;;;;;;;19.13;45.93;99106.06;2078226;28;20741;-65
2021/11/29 04:07:58;;;;;;;;;;;;;;;19.14;45.79;99099.56;2081324;28;20392;-65
2021/11/29 04:08:59;;;;;;;;;;;;;;;19.14;45.78;99105.03;2081052;28;19921;-65
2021/11/29 04:09:59;;;;;;;;;;;;;;;19.14;45.80;99096.84;2080996;28;19913;-65
2021/11/29 04:10:59;;;;;;;;;;;;;;;19.14;45.80;99107.78;2082243;28;20011;-65
2021/11/29 04:11:59;;;;;;;;;;;;;;;19.14;45.78;99107.78;2080608;28;19913;-65
2021/11/29 04:13:00;;;;;;;;;;;;;;;19.13;45.97;99106.06;2080102;28;19916;-65
2021/11/29 04:14:00;;;;;;;;;;;;;;;19.14;45.80;99113.22;2076247;28;20015;-65
2021/11/29 04:15:16;;;;;;;;;;;;;;;19.14;45.70;99110.50;2080422;28;20574;-65
2021/11/29 04:16:17;;;;;;;;;;;;;;;19.13;45.90;99108.78;2077005;28;20647;-65
2021/11/29 04:17:17;;;;;;;;;;;;;;;19.14;45.76;99121.44;2081451;28;20336;-65
2021/11/29 04:18:18;;;;;;;;;;;;;;;19.14;45.77;99126.03;2080039;28;19924;-65
2021/11/29 04:19:18;;;;;;;;;;;;;;;19.14;45.79;99121.44;2080823;28;19916;-65
2021/11/29 04:20:18;;;;;;;;;;;;;;;19.14;45.79;99120.59;2080439;28;20610;-65
2021/11/29 04:21:19;;;;;;;;;;;;;;;19.12;45.89;99117.16;2080248;28;19925;-65
2021/11/29 04:22:19;;;;;;;;;;;;;;;19.14;45.90;99123.31;2080310;28;19925;-65
2021/11/29 04:23:20;;;;;;;;;;;;;;;19.13;45.75;99124.31;2080923;28;19970;-65
2021/11/29 04:24:22;;;;;;;;;;;;;;;19.13;45.89;99130.63;2080395;28;19912;-65
2021/11/29 04:25:24;;;;;;;;;;;;;;;19.13;45.77;99119.72;2081556;28;19920;-65
2021/11/29 04:26:25;;;;;;;;;;;;;;;19.13;45.78;99125.16;2079229;28;19943;-66
2021/11/29 04:27:28;;;;;;;;;;;;;;;19.13;45.93;99125.16;2071227;28;20352;-65
2021/11/29 04:28:29;;;;;;;;;;;;;;;19.13;45.89;99125.16;2071803;28;19909;-66
2021/11/29 04:29:31;;;;;;;;;;;;;;;19.13;45.77;99133.38;2080185;28;20214;-65
2021/11/29 04:30:32;;;;;;;;;;;;;;;19.13;45.87;99130.63;2081370;28;19913;-66
2021/11/29 04:31:32;;;;;;;;;;;;;;;19.14;45.92;99121.44;2080338;28;20003;-66
2021/11/29 04:32:32;;;;;;;;;;;;;;;19.13;45.83;99130.63;2081570;28;19939;-65
2021/11/29 04:33:33;;;;;;;;;;;;;;;19.13;45.86;99127.91;2080861;28;19909;-65
2021/11/29 04:34:34;;;;;;;;;;;;;;;19.13;45.80;99130.63;2080305;28;19913;-65
2021/11/29 04:35:34;;;;;;;;;;;;;;;19.12;45.91;99131.66;2081105;28;19909;-65
2021/11/29 04:36:35;;;;;;;;;;;;;;;19.13;45.82;99133.38;2080436;28;19962;-65
2021/11/29 04:37:35;;;;;;;;;;;;;;;19.11;45.88;99127.25;2080333;28;20027;-65
2021/11/29 04:38:36;;;;;;;;;;;;;;;19.11;45.93;99132.72;2080555;28;19912;-65
2021/11/29 04:39:36;;;;;;;;;;;;;;;19.11;45.87;99127.25;2079796;28;19913;-65
2021/11/29 04:40:36;;;;;;;;;;;;;;;19.12;45.86;99126.22;2081289;28;19913;-65
2021/11/29 04:41:37;;;;;;;;;;;;;;;19.11;45.74;99132.72;2080516;28;20433;-65
2021/11/29 04:42:37;;;;;;;;;;;;;;;19.11;45.81;99135.44;2080248;28;20654;-66
2021/11/29 04:43:38;;;;;;;;;;;;;;;19.11;45.87;99129.97;2080870;28;19916;-65
2021/11/29 04:44:38;;;;;;;;;;;;;;;19.09;45.85;99140.22;2080403;28;20299;-66
2021/11/29 04:45:38;;;;;;;;;;;;;;;19.12;45.86;99139.88;2080811;28;19921;-65
2021/11/29 04:46:39;;;;;;;;;;;;;;;19.11;45.87;99140.91;2080159;28;19974;-65
2021/11/29 04:47:39;;;;;;;;;;;;;;;19.11;45.84;99146.38;2079884;28;20522;-65
2021/11/29 04:48:39;;;;;;;;;;;;;;;19.11;45.90;99151.84;2081794;28;20149;-65
2021/11/29 04:49:40;;;;;;;;;;;;;;;19.11;45.91;99160.03;2076818;28;19917;-65
2021/11/29 04:50:40;;;;;;;;;;;;;;;19.11;45.89;99154.56;2073435;28;19913;-65
2021/11/29 04:51:40;;;;;;;;;;;;;;;19.10;45.91;99158.31;2080753;28;19924;-65
2021/11/29 04:52:41;;;;;;;;;;;;;;;19.10;45.82;99166.50;2080417;28;19924;-66
2021/11/29 04:53:42;;;;;;;;;;;;;;;19.10;45.98;99163.78;2081623;28;19967;-66
2021/11/29 04:54:43;;;;;;;;;;;;;;;19.09;45.97;99162.06;2084198;28;19950;-65
2021/11/29 04:55:44;;;;;;;;;;;;;;;19.09;45.89;99167.53;2088267;28;20046;-65
2021/11/29 04:56:44;;;;;;;;;;;;;;;19.09;45.93;99167.53;2087712;28;19912;-66
2021/11/29 04:57:44;;;;;;;;;;;;;;;19.09;45.86;99183.94;2085305;28;20490;-65
2021/11/29 04:58:45;;;;;;;;;;;;;;;19.10;45.85;99191.09;2081879;28;19921;-65
2021/11/29 04:59:45;;;;;;;;;;;;;;;19.09;45.85;99189.41;2071214;28;19917;-65
2021/11/29 05:00:51;;;;;;;;;;;;;;;19.09;45.81;99189.41;2068513;28;19922;-65
2021/11/29 05:01:51;;;;;;;;;;;;;;;19.09;45.85;99183.94;2081519;28;19921;-65
2021/11/29 05:02:52;;;;;;;;;;;;;;;19.08;45.86;99182.19;2083267;28;19913;-65
2021/11/29 05:04:04;;;;;;;;;;;;;;;19.08;45.96;99190.41;2089483;28;19952;-65
2021/11/29 05:05:05;;;;;;;;;;;;;;;19.09;46.00;99200.31;2082174;28;19913;-65
2021/11/29 05:06:05;;;;;;;;;;;;;;;19.07;45.87;99202.38;2081114;28;20494;-65
2021/11/29 05:07:06;;;;;;;;;;;;;;;19.08;45.91;99208.66;2081851;28;19913;-65
2021/11/29 05:08:06;;;;;;;;;;;;;;;19.07;45.93;99213.28;2071159;28;19916;-65
2021/11/29 05:09:09;;;;;;;;;;;;;;;19.06;45.98;99220.63;2071832;28;19905;-65
2021/11/29 05:10:09;;;;;;;;;;;;;;;19.07;45.74;99216.03;2079818;28;19928;-65
2021/11/29 05:11:10;;;;;;;;;;;;;;;19.05;46.01;99207.97;2082871;28;19923;-65
2021/11/29 05:12:13;;;;;;;;;;;;;;;19.05;46.15;99207.13;2081055;28;19924;-65
2021/11/29 05:13:14;;;;;;;;;;;;;;;19.05;46.05;99218.91;2080193;28;19967;-65
2021/11/29 05:14:14;;;;;;;;;;;;;;;19.05;46.02;99226.25;2080537;28;20477;-65
2021/11/29 05:15:14;;;;;;;;;;;;;;;19.05;46.09;99227.09;2089196;28;19916;-65
2021/11/29 05:16:15;;;;;;;;;;;;;;;19.04;45.94;99230.88;2073701;28;19983;-65
2021/11/29 05:17:16;;;;;;;;;;;;;;;19.04;46.10;99225.41;2072227;28;19917;-65